Time;durP1;ratioP1;P1;durP2;ratioP2;P2;SDS_P1;SDS_P2;PMS_P1;PMS_P2;Temp;Humidity;BMP_temperature;BMP_pressure;BME280_temperature;BME280_humidity;BME280_pressure;Samples;Min_cycle;Max_cycle;Signal;HPM_P1;HPM_P2
2022/01/25 00:29:58;;;;;;;54.53;29.55;;;6.80;74.00;;;;;;6006844;23;93013;-72
2022/01/25 00:32:25;;;;;;;52.50;30.00;;;6.80;74.10;;;;;;5981261;23;93997;-72
2022/01/25 00:34:52;;;;;;;54.17;29.65;;;6.80;74.10;;;;;;5981765;23;93038;-72
2022/01/25 00:37:20;;;;;;;52.78;29.20;;;6.80;74.60;;;;;;6007458;23;91702;-72
2022/01/25 00:39:48;;;;;;;56.42;30.02;;;6.80;74.50;;;;;;6007176;23;93005;-72
2022/01/25 00:42:15;;;;;;;56.67;29.75;;;6.80;74.50;;;;;;5957666;23;108025;-72
2022/01/25 00:44:46;;;;;;;54.60;29.48;;;6.80;74.60;;;;;;5980316;23;94797;-72
2022/01/25 00:47:15;;;;;;;56.25;31.83;;;6.80;75.10;;;;;;5960425;23;92390;-72
2022/01/25 00:49:44;;;;;;;54.90;29.67;;;6.80;74.60;;;;;;6007063;23;94029;-72
2022/01/25 00:52:25;;;;;;;57.53;30.63;;;6.80;74.80;;;;;;5981310;23;94103;-72
2022/01/25 00:54:53;;;;;;;53.47;27.90;;;6.80;74.90;;;;;;5981788;23;92401;-72
2022/01/25 00:57:20;;;;;;;55.35;31.30;;;6.80;74.90;;;;;;6006330;23;92430;-72
2022/01/25 00:59:47;;;;;;;59.38;31.10;;;6.80;74.90;;;;;;6007005;23;93063;-72
2022/01/25 01:02:16;;;;;;;59.42;32.20;;;6.70;75.10;;;;;;5982166;23;93035;-72
2022/01/25 01:04:46;;;;;;;58.38;31.38;;;6.80;75.40;;;;;;6007085;23;92469;-72
2022/01/25 01:07:16;;;;;;;59.15;30.92;;;6.70;75.30;;;;;;6006965;23;92464;-72
2022/01/25 01:09:49;;;;;;;54.70;30.92;;;6.80;75.30;;;;;;6005140;23;95925;-72
2022/01/25 01:12:42;;;;;;;54.08;30.13;;;6.80;75.50;;;;;;6006813;23;95194;-72
2022/01/25 01:15:23;;;;;;;55.33;29.23;;;6.80;75.60;;;;;;6006900;23;92440;-71
2022/01/25 01:39:49;;;;;;;54.78;30.52;;;6.70;75.30;;;;;;5980949;23;92446;-72
2022/01/25 01:42:49;;;;;;;58.42;31.08;;;6.70;75.30;;;;;;6006494;23;93092;-72
2022/01/25 01:45:27;;;;;;;57.40;29.77;;;6.70;75.30;;;;;;6006213;23;92850;-71
2022/01/25 01:48:01;;;;;;;58.75;29.98;;;6.70;75.30;;;;;;6006525;23;92469;-72
2022/01/25 01:50:31;;;;;;;57.95;31.98;;;6.60;75.50;;;;;;6006228;23;92330;-72
2022/01/25 01:52:59;;;;;;;56.97;31.60;;;6.60;75.90;;;;;;6006204;23;93088;-72
2022/01/25 01:55:27;;;;;;;56.22;30.70;;;6.60;75.50;;;;;;6006382;23;91638;-72
2022/01/25 01:57:55;;;;;;;58.72;31.58;;;6.60;75.60;;;;;;6006053;23;92488;-71
2022/01/25 02:00:27;;;;;;;53.60;29.33;;;6.70;75.50;;;;;;6006242;23;92394;-71
2022/01/25 02:02:54;;;;;;;57.67;32.20;;;6.70;75.70;;;;;;6004640;23;95622;-71
2022/01/25 02:05:21;;;;;;;59.85;31.25;;;6.70;75.50;;;;;;6005804;23;95336;-71
2022/01/25 02:07:48;;;;;;;55.78;30.80;;;6.60;75.50;;;;;;6005903;23;92468;-71
2022/01/25 02:10:15;;;;;;;56.40;30.60;;;6.70;75.70;;;;;;6006085;23;92361;-71
2022/01/25 02:12:45;;;;;;;59.15;32.05;;;6.70;75.60;;;;;;6005666;23;92878;-71
2022/01/25 02:15:13;;;;;;;59.08;32.92;;;6.70;75.50;;;;;;6005943;23;92972;-71
2022/01/25 02:23:14;;;;;;;55.35;29.45;;;6.70;75.30;;;;;;6005758;23;96073;-71
2022/01/25 02:25:41;;;;;;;60.08;30.65;;;6.70;75.30;;;;;;6005402;23;92750;-71
2022/01/25 02:28:08;;;;;;;56.03;31.10;;;6.70;75.40;;;;;;6004706;23;94919;-71
2022/01/25 02:30:35;;;;;;;55.20;30.67;;;6.70;75.40;;;;;;6005829;23;92409;-71
2022/01/25 02:33:02;;;;;;;57.00;31.52;;;6.70;75.30;;;;;;6005728;23;93170;-71
2022/01/25 02:35:29;;;;;;;57.58;31.67;;;6.70;75.20;;;;;;6005622;23;92900;-71
2022/01/25 02:37:56;;;;;;;58.30;31.70;;;6.70;74.90;;;;;;6005619;23;92486;-71
2022/01/25 02:40:23;;;;;;;57.55;32.47;;;6.70;74.80;;;;;;6007379;23;92478;-71
2022/01/25 02:42:51;;;;;;;57.08;31.00;;;6.70;74.80;;;;;;5981800;23;92985;-71
2022/01/25 02:45:18;;;;;;;59.50;31.95;;;6.70;74.90;;;;;;6007072;23;108143;-71
2022/01/25 02:50:31;;;;;;;56.65;31.40;;;6.70;75.60;;;;;;6007427;23;92484;-71
2022/01/25 02:52:58;;;;;;;58.17;31.17;;;6.70;74.70;;;;;;6005324;23;95914;-71
2022/01/25 02:55:25;;;;;;;58.85;30.23;;;6.70;74.50;;;;;;6006946;23;95346;-71
2022/01/25 02:57:52;;;;;;;61.05;32.22;;;6.70;74.70;;;;;;6006582;23;92514;-71
2022/01/25 03:00:19;;;;;;;56.97;32.65;;;6.60;74.70;;;;;;6007195;23;92393;-71
2022/01/25 03:02:46;;;;;;;61.97;33.35;;;6.60;74.80;;;;;;5981151;23;94059;-71
2022/01/25 03:05:13;;;;;;;61.15;32.75;;;6.60;74.80;;;;;;6007017;23;95629;-71
2022/01/25 03:07:43;;;;;;;65.80;33.28;;;6.60;75.60;;;;;;6006865;23;92518;-71
2022/01/25 03:10:12;;;;;;;60.63;31.92;;;6.60;74.90;;;;;;6007679;23;91655;-72
2022/01/25 03:12:45;;;;;;;59.65;32.45;;;6.60;75.00;;;;;;5981559;23;92949;-71
2022/01/25 03:17:46;;;;;;;57.25;32.15;;;6.60;74.90;;;;;;6005414;23;94772;-71
2022/01/25 03:20:20;;;;;;;;;;;6.60;74.80;;;;;;6007919;23;92371;-71
2022/01/25 03:25:25;;;;;;;58.25;31.63;;;6.60;75.10;;;;;;6007287;23;92913;-71
2022/01/25 03:27:53;;;;;;;57.65;31.08;;;6.60;74.80;;;;;;6006927;23;92458;-71
2022/01/25 03:30:20;;;;;;;63.33;33.25;;;6.60;74.80;;;;;;6006805;23;98452;-71
2022/01/25 03:32:46;;;;;;;65.65;33.97;;;6.60;75.10;;;;;;6006789;23;92936;-71
2022/01/25 03:35:13;;;;;;;57.00;32.45;;;6.60;75.10;;;;;;6007769;23;92973;-71
2022/01/25 03:37:40;;;;;;;60.28;32.60;;;6.60;75.00;;;;;;6007067;23;92331;-71
2022/01/25 03:40:08;;;;;;;60.20;32.42;;;6.60;74.80;;;;;;6007676;23;92375;-71
2022/01/25 03:42:37;;;;;;;56.85;30.48;;;6.60;74.90;;;;;;6006025;23;96935;-71
2022/01/25 03:45:07;;;;;;;60.40;31.85;;;6.70;75.00;;;;;;6006468;23;95259;-71
2022/01/25 03:48:00;;;;;;;58.20;31.13;;;6.70;74.90;;;;;;5981474;23;92826;-71
2022/01/25 03:50:27;;;;;;;61.30;32.28;;;6.60;74.60;;;;;;6006440;23;92436;-71
2022/01/25 03:52:54;;;;;;;61.75;32.90;;;6.60;74.90;;;;;;6006896;23;92672;-71
2022/01/25 03:55:21;;;;;;;58.92;31.98;;;6.60;75.10;;;;;;6006842;23;92799;-71
2022/01/25 03:57:48;;;;;;;62.33;32.55;;;6.60;75.00;;;;;;5980938;23;92467;-72
2022/01/25 04:00:15;;;;;;;60.10;32.47;;;6.60;75.00;;;;;;6007274;23;91690;-71
2022/01/25 04:02:51;;;;;;;61.40;31.85;;;6.60;74.80;;;;;;6006893;23;94094;-71
2022/01/25 04:05:32;;;;;;;60.28;32.78;;;6.60;74.80;;;;;;6006838;23;92889;-71
2022/01/25 04:07:59;;;;;;;60.40;31.95;;;6.70;74.80;;;;;;6005638;23;95646;-71
2022/01/25 04:10:26;;;;;;;57.35;31.55;;;6.60;74.80;;;;;;5958057;23;92414;-72
2022/01/25 04:12:53;;;;;;;59.95;32.28;;;6.60;74.70;;;;;;6006428;23;93108;-71
2022/01/25 04:15:20;;;;;;;57.10;31.67;;;6.60;74.70;;;;;;6007026;23;92928;-71
2022/01/25 04:17:52;;;;;;;66.80;33.90;;;6.60;74.90;;;;;;6006313;23;99047;-72
2022/01/25 04:20:30;;;;;;;61.05;34.53;;;6.60;74.80;;;;;;6007156;23;92302;-71
2022/01/25 04:25:43;;;;;;;58.03;31.48;;;6.60;74.70;;;;;;6007265;23;93131;-71
2022/01/25 04:28:10;;;;;;;61.50;32.95;;;6.60;74.90;;;;;;5981587;23;92478;-71
2022/01/25 04:30:37;;;;;;;62.53;32.33;;;6.60;75.10;;;;;;6006938;23;92349;-71
2022/01/25 04:33:16;;;;;;;58.97;30.90;;;6.60;75.10;;;;;;5979912;23;95336;-71
2022/01/25 04:35:57;;;;;;;60.80;32.15;;;6.60;75.10;;;;;;5981227;23;98032;-71
2022/01/25 04:49:29;;;;;;;63.22;32.65;;;6.60;75.90;;;;;;6007113;23;92516;-71
2022/01/25 04:59:46;;;;;;;60.93;31.40;;;6.60;75.80;;;;;;5982197;23;94811;-71
2022/01/25 05:04:53;;;;;;;58.47;31.05;;;6.60;76.00;;;;;;5983210;23;92771;-71
2022/01/25 05:09:50;;;;;;;62.63;32.15;;;6.60;75.70;;;;;;6006954;23;92446;-71
2022/01/25 05:12:17;;;;;;;60.65;31.50;;;6.60;75.80;;;;;;6006752;23;92439;-71
2022/01/25 05:14:58;;;;;;;62.35;33.50;;;6.60;76.00;;;;;;5981096;23;94168;-71
2022/01/25 05:17:35;;;;;;;64.28;32.25;;;6.60;75.90;;;;;;5984975;23;92777;-71
2022/01/25 05:22:50;;;;;;;62.83;31.60;;;6.60;75.80;;;;;;6006976;23;92378;-71
2022/01/25 05:25:17;;;;;;;58.40;30.58;;;6.60;75.90;;;;;;6004825;23;95322;-71
2022/01/25 05:27:44;;;;;;;58.55;31.63;;;6.60;75.90;;;;;;5981306;23;95277;-71
2022/01/25 05:30:11;;;;;;;57.38;30.60;;;6.60;75.90;;;;;;6006642;23;92315;-71
2022/01/25 05:32:39;;;;;;;62.88;33.17;;;6.60;76.00;;;;;;6006373;23;105506;-71
2022/01/25 05:35:06;;;;;;;60.45;32.22;;;6.60;75.90;;;;;;6006269;23;93148;-71
2022/01/25 05:37:40;;;;;;;62.92;31.23;;;6.60;75.90;;;;;;6006539;23;92864;-71
2022/01/25 05:40:13;;;;;;;60.67;32.38;;;6.60;76.00;;;;;;5980821;23;92470;-71
2022/01/25 05:47:44;;;;;;;63.55;33.80;;;6.60;76.00;;;;;;5980895;23;93947;-71
2022/01/25 05:50:13;;;;;;;60.88;32.97;;;6.60;76.10;;;;;;5979333;23;95787;-71
2022/01/25 05:52:41;;;;;;;61.58;33.80;;;6.60;76.00;;;;;;5980771;23;92454;-71
2022/01/25 05:55:09;;;;;;;57.55;30.92;;;6.60;76.00;;;;;;5980359;23;94091;-71
2022/01/25 05:57:36;;;;;;;63.28;33.70;;;6.60;76.00;;;;;;5979910;23;93990;-71
2022/01/25 06:00:05;;;;;;;61.50;31.48;;;6.60;76.00;;;;;;5980193;23;92765;-71
2022/01/25 06:02:34;;;;;;;59.13;31.25;;;6.60;76.10;;;;;;6005019;23;92895;-71
2022/01/25 06:05:01;;;;;;;62.13;32.40;;;6.60;75.90;;;;;;6005113;23;93087;-71
2022/01/25 06:07:28;;;;;;;61.30;32.58;;;6.60;76.10;;;;;;6005912;23;105784;-71
2022/01/25 06:09:55;;;;;;;61.70;31.55;;;6.60;76.10;;;;;;5980674;23;92782;-71
2022/01/25 06:12:22;;;;;;;58.30;31.10;;;6.60;76.20;;;;;;5980796;23;92525;-72
2022/01/25 06:14:48;;;;;;;63.40;32.40;;;6.60;76.20;;;;;;5979876;23;96503;-71
2022/01/25 06:17:15;;;;;;;63.67;31.95;;;6.60;76.30;;;;;;6007004;23;95185;-71
2022/01/25 06:19:43;;;;;;;62.33;31.92;;;6.60;76.20;;;;;;6007557;23;92303;-71
2022/01/25 06:22:10;;;;;;;60.47;31.08;;;6.60;76.10;;;;;;6007360;23;92825;-71
2022/01/25 06:24:37;;;;;;;63.03;31.88;;;6.60;76.30;;;;;;6007392;23;92866;-71
2022/01/25 06:27:05;;;;;;;61.78;32.10;;;6.60;76.30;;;;;;5981232;23;95589;-71
2022/01/25 06:29:32;;;;;;;59.70;31.58;;;6.60;76.60;;;;;;5982217;23;92430;-71
2022/01/25 06:32:00;;;;;;;62.20;31.70;;;6.70;76.40;;;;;;6007303;23;101337;-71
2022/01/25 06:34:27;;;;;;;61.20;31.23;;;6.70;76.40;;;;;;5981319;23;94174;-71
2022/01/25 06:36:54;;;;;;;57.50;31.92;;;6.70;76.30;;;;;;6007070;23;92705;-71
2022/01/25 06:39:22;;;;;;;62.35;32.75;;;6.70;76.30;;;;;;6005542;23;94779;-71
2022/01/25 06:41:48;;;;;;;57.72;30.83;;;6.70;76.20;;;;;;6007339;23;92381;-71
2022/01/25 06:44:15;;;;;;;59.50;31.35;;;6.70;76.30;;;;;;6006798;23;93027;-71
2022/01/25 06:46:45;;;;;;;61.45;31.48;;;6.70;76.00;;;;;;6006711;23;93434;-71
2022/01/25 06:49:14;;;;;;;63.83;32.33;;;6.70;76.10;;;;;;6006790;23;92406;-71
2022/01/25 06:51:41;;;;;;;61.92;31.67;;;6.70;76.10;;;;;;6006966;23;92467;-71
2022/01/25 06:54:08;;;;;;;64.63;31.77;;;6.70;76.60;;;;;;5981134;23;93074;-71
2022/01/25 06:56:35;;;;;;;59.35;31.30;;;6.70;76.00;;;;;;5982369;23;92819;-71
2022/01/25 06:59:03;;;;;;;58.08;30.40;;;6.70;76.20;;;;;;6006942;23;92450;-71
2022/01/25 07:01:30;;;;;;;61.47;31.58;;;6.70;76.60;;;;;;6007042;23;92398;-71
2022/01/25 07:03:58;;;;;;;60.75;31.52;;;6.70;76.40;;;;;;6005593;23;95354;-71
2022/01/25 07:06:25;;;;;;;62.83;31.90;;;6.70;76.40;;;;;;5981635;23;95259;-72
2022/01/25 07:08:53;;;;;;;60.97;31.48;;;6.70;76.40;;;;;;5981527;23;92461;-71
2022/01/25 07:11:20;;;;;;;62.45;32.22;;;6.70;76.30;;;;;;6007067;23;92389;-73
2022/01/25 07:13:47;;;;;;;65.57;33.70;;;6.70;77.00;;;;;;6007091;23;93080;-72
2022/01/25 07:16:15;;;;;;;64.10;32.42;;;6.70;76.50;;;;;;6006717;23;92708;-72
2022/01/25 07:18:42;;;;;;;62.92;32.30;;;6.70;76.40;;;;;;5958182;23;92370;-71
2022/01/25 07:21:09;;;;;;;58.70;31.13;;;6.70;76.30;;;;;;6007629;23;91670;-72
2022/01/25 07:23:36;;;;;;;58.15;31.98;;;6.70;76.30;;;;;;5981459;23;94095;-72
2022/01/25 07:26:03;;;;;;;62.88;31.73;;;6.70;76.40;;;;;;6007034;23;92840;-72
2022/01/25 07:28:30;;;;;;;57.22;30.90;;;6.70;76.30;;;;;;6005405;23;94810;-72
2022/01/25 07:30:57;;;;;;;63.85;32.03;;;6.70;76.30;;;;;;6007374;23;92798;-72
2022/01/25 07:33:31;;;;;;;60.58;31.50;;;6.70;76.80;;;;;;6005698;23;94077;-72
2022/01/25 07:36:01;;;;;;;61.35;32.30;;;6.70;76.60;;;;;;5981181;23;95443;-72
2022/01/25 07:38:29;;;;;;;56.03;30.23;;;6.70;76.60;;;;;;5981844;23;101258;-72
2022/01/25 07:40:56;;;;;;;60.92;31.05;;;6.70;76.60;;;;;;6007324;23;92371;-72
2022/01/25 07:43:23;;;;;;;62.35;32.00;;;6.70;76.50;;;;;;6006808;23;93219;-72
2022/01/25 07:45:54;;;;;;;66.97;32.45;;;6.70;76.40;;;;;;6007172;23;93803;-72
2022/01/25 07:48:27;;;;;;;61.45;32.42;;;6.70;76.30;;;;;;6006937;23;92719;-72
2022/01/25 07:50:54;;;;;;;60.78;30.75;;;6.70;76.40;;;;;;6007317;23;92393;-72
2022/01/25 07:53:21;;;;;;;64.18;31.27;;;6.70;76.40;;;;;;6005191;23;95562;-71
2022/01/25 07:55:48;;;;;;;62.35;31.30;;;6.70;76.60;;;;;;6006874;23;95310;-72
2022/01/25 07:58:16;;;;;;;63.60;31.38;;;6.70;76.60;;;;;;6006536;23;92386;-72
2022/01/25 08:00:43;;;;;;;63.35;32.10;;;6.80;76.60;;;;;;6007035;23;92530;-72
2022/01/25 08:03:10;;;;;;;64.13;32.03;;;6.80;76.70;;;;;;6007570;23;93150;-72
2022/01/25 08:05:40;;;;;;;59.20;29.85;;;6.70;76.80;;;;;;6006321;23;93931;-72
2022/01/25 08:08:07;;;;;;;62.38;31.58;;;6.80;76.80;;;;;;6006664;23;92379;-72
2022/01/25 08:10:39;;;;;;;63.28;31.55;;;6.80;76.50;;;;;;6007304;23;92031;-72
2022/01/25 08:13:12;;;;;;;62.47;31.65;;;6.80;76.60;;;;;;5982875;23;93123;-72
2022/01/25 08:15:39;;;;;;;56.20;29.10;;;6.80;76.40;;;;;;5980752;23;103256;-72
2022/01/25 08:18:13;;;;;;;56.05;30.40;;;6.80;76.40;;;;;;6004645;23;94709;-72
2022/01/25 08:20:43;;;;;;;62.53;32.25;;;6.80;76.40;;;;;;6006530;23;92395;-72
2022/01/25 08:23:12;;;;;;;60.63;30.45;;;6.90;76.50;;;;;;6006888;23;93059;-72
2022/01/25 08:25:53;;;;;;;59.08;31.05;;;6.90;76.50;;;;;;6003656;23;93177;-72
2022/01/25 08:28:20;;;;;;;58.58;30.45;;;6.90;76.50;;;;;;5980571;23;92923;-72
2022/01/25 08:30:47;;;;;;;65.53;32.40;;;6.80;76.50;;;;;;6006489;23;92327;-72
2022/01/25 08:33:17;;;;;;;63.42;32.28;;;6.80;76.50;;;;;;6007017;23;93225;-72
2022/01/25 08:35:48;;;;;;;62.42;32.00;;;6.90;76.70;;;;;;5981868;23;94157;-72
2022/01/25 08:38:15;;;;;;;63.50;31.20;;;6.90;76.60;;;;;;6007017;23;92351;-72
2022/01/25 08:40:42;;;;;;;62.83;31.77;;;6.90;76.60;;;;;;5981215;23;92457;-72
2022/01/25 08:43:08;;;;;;;60.33;30.13;;;6.90;76.80;;;;;;6005288;23;96609;-72
2022/01/25 08:45:41;;;;;;;63.60;32.05;;;6.90;76.70;;;;;;6005806;23;95428;-72
2022/01/25 08:48:18;;;;;;;62.33;31.33;;;6.90;77.50;;;;;;5980959;23;92472;-72
2022/01/25 08:50:47;;;;;;;61.75;30.67;;;6.90;76.60;;;;;;6007073;23;92341;-72
2022/01/25 08:53:15;;;;;;;67.85;33.17;;;7.00;76.70;;;;;;6006732;23;93041;-72
2022/01/25 08:55:53;;;;;;;61.72;29.80;;;7.00;77.10;;;;;;6006847;23;92820;-72
2022/01/25 08:58:25;;;;;;;62.35;31.52;;;7.00;76.90;;;;;;6005912;23;92488;-73
2022/01/25 09:00:52;;;;;;;60.10;30.80;;;7.00;76.70;;;;;;6007341;23;91788;-68
2022/01/25 09:03:20;;;;;;;60.83;30.27;;;7.00;77.40;;;;;;5981551;23;92937;-68
2022/01/25 09:05:47;;;;;;;63.40;31.67;;;7.00;76.70;;;;;;6006802;23;92982;-68
2022/01/25 09:08:20;;;;;;;55.30;28.52;;;7.00;76.60;;;;;;6005415;23;94769;-68
2022/01/25 09:10:50;;;;;;;66.22;32.40;;;7.00;76.40;;;;;;6006704;23;92539;-69
2022/01/25 09:13:20;;;;;;;61.83;31.77;;;7.00;76.50;;;;;;6006775;23;93025;-68
2022/01/25 09:15:47;;;;;;;62.38;30.65;;;7.10;76.60;;;;;;5981485;23;93856;-68
2022/01/25 09:18:14;;;;;;;60.22;29.42;;;7.10;77.10;;;;;;5981130;23;92344;-68
2022/01/25 09:20:42;;;;;;;57.50;30.15;;;7.10;76.50;;;;;;6006524;23;92400;-68
2022/01/25 09:23:09;;;;;;;60.53;30.60;;;7.10;76.50;;;;;;5980634;23;94228;-68
2022/01/25 09:25:36;;;;;;;59.53;30.45;;;7.20;76.40;;;;;;6006540;23;92715;-68
2022/01/25 09:28:03;;;;;;;55.20;29.77;;;7.20;76.50;;;;;;6006729;23;92739;-68
2022/01/25 09:30:30;;;;;;;59.20;30.17;;;7.20;76.20;;;;;;6006371;23;92361;-68
2022/01/25 09:32:58;;;;;;;58.60;30.00;;;7.20;76.20;;;;;;5978612;23;114688;-68
2022/01/25 09:35:25;;;;;;;57.25;28.13;;;7.20;76.00;;;;;;6005942;23;95240;-68
2022/01/25 09:37:52;;;;;;;57.95;29.13;;;7.20;76.00;;;;;;6006485;23;92377;-69
2022/01/25 09:40:22;;;;;;;57.97;29.27;;;7.20;76.10;;;;;;5981387;23;92465;-69
2022/01/25 09:42:52;;;;;;;58.38;28.75;;;7.30;76.10;;;;;;6006270;23;93082;-68
2022/01/25 09:45:19;;;;;;;55.55;28.85;;;7.30;76.00;;;;;;5980697;23;94068;-68
2022/01/25 09:47:48;;;;;;;55.63;29.92;;;7.30;75.80;;;;;;5981077;23;92306;-69
2022/01/25 09:50:15;;;;;;;63.28;29.98;;;7.30;76.10;;;;;;6008490;23;92232;-68
2022/01/25 09:52:43;;;;;;;58.25;28.90;;;7.30;76.10;;;;;;6007326;23;93099;-68
2022/01/25 09:55:14;;;;;;;58.92;30.63;;;7.40;76.40;;;;;;6007507;23;92885;-72
2022/01/25 09:57:41;;;;;;;62.45;30.70;;;7.40;76.20;;;;;;6005646;23;94826;-71
2022/01/25 10:00:14;;;;;;;55.83;27.95;;;7.40;76.20;;;;;;6007887;23;92440;-72
2022/01/25 10:02:52;;;;;;;58.13;30.13;;;7.40;76.20;;;;;;6007311;23;93233;-72
2022/01/25 10:05:27;;;;;;;56.25;30.08;;;7.40;76.40;;;;;;6007529;23;92978;-72
2022/01/25 10:07:56;;;;;;;63.47;30.98;;;7.40;76.40;;;;;;5982377;23;92409;-72
2022/01/25 10:10:25;;;;;;;58.40;29.60;;;7.40;76.40;;;;;;6007609;23;92519;-71
2022/01/25 10:12:54;;;;;;;56.72;29.42;;;7.40;76.50;;;;;;5982313;23;92993;-72
2022/01/25 10:15:26;;;;;;;60.13;30.27;;;7.40;76.40;;;;;;6006835;23;92864;-72
2022/01/25 10:18:10;;;;;;;53.92;28.75;;;7.40;76.50;;;;;;6007788;23;92428;-72
2022/01/25 10:20:43;;;;;;;62.30;31.73;;;7.40;76.40;;;;;;6007481;23;92500;-72
2022/01/25 10:23:18;;;;;;;60.40;30.92;;;7.50;76.50;;;;;;5981024;23;96467;-72
2022/01/25 10:25:47;;;;;;;58.72;30.45;;;7.50;76.50;;;;;;5981855;23;96309;-72
2022/01/25 10:28:16;;;;;;;59.80;30.27;;;7.50;76.70;;;;;;6007135;23;92442;-72
2022/01/25 10:30:55;;;;;;;63.83;32.08;;;7.40;76.50;;;;;;6007244;23;92428;-72
2022/01/25 10:33:33;;;;;;;60.97;29.75;;;7.50;76.70;;;;;;5981700;23;95146;-72
2022/01/25 10:36:09;;;;;;;58.25;29.33;;;7.50;76.50;;;;;;6007548;23;92809;-71
2022/01/25 10:38:36;;;;;;;62.10;30.95;;;7.50;76.70;;;;;;6007281;23;92297;-72
2022/01/25 10:41:06;;;;;;;56.80;28.10;;;7.50;76.60;;;;;;6008033;23;91756;-72
2022/01/25 10:43:34;;;;;;;61.85;30.95;;;7.50;76.70;;;;;;5981533;23;94345;-71
2022/01/25 10:46:19;;;;;;;61.35;31.02;;;7.50;76.60;;;;;;6007400;23;92895;-72
2022/01/25 10:48:50;;;;;;;63.97;31.20;;;7.50;76.60;;;;;;5980376;23;94805;-72
2022/01/25 10:51:41;;;;;;;62.47;31.08;;;7.50;76.70;;;;;;6007509;23;92389;-72
2022/01/25 10:54:23;;;;;;;61.85;31.35;;;7.50;76.70;;;;;;5971752;23;94339;-72
2022/01/25 10:56:59;;;;;;;64.57;30.55;;;7.50;76.80;;;;;;5982045;23;92863;-72
2022/01/25 10:59:32;;;;;;;64.22;32.42;;;7.50;76.90;;;;;;5981460;23;92341;-71
2022/01/25 11:02:03;;;;;;;66.32;30.42;;;7.50;77.10;;;;;;6007155;23;92305;-72
2022/01/25 11:04:34;;;;;;;67.50;31.85;;;7.50;77.00;;;;;;6007342;23;93223;-72
2022/01/25 11:07:09;;;;;;;61.20;29.45;;;7.50;77.10;;;;;;6007726;23;92693;-72
2022/01/25 11:09:42;;;;;;;62.40;29.20;;;7.60;77.30;;;;;;6007094;23;92380;-72
2022/01/25 11:12:13;;;;;;;61.53;29.63;;;7.50;77.00;;;;;;6007501;23;92381;-72
2022/01/25 11:14:50;;;;;;;60.83;28.20;;;7.50;77.50;;;;;;6005260;23;95587;-72
2022/01/25 11:17:19;;;;;;;63.10;30.33;;;7.50;77.30;;;;;;5981551;23;95654;-72
2022/01/25 11:19:46;;;;;;;59.83;28.40;;;7.50;77.30;;;;;;6007020;23;92312;-72
2022/01/25 11:22:19;;;;;;;59.72;28.33;;;7.50;77.00;;;;;;6007389;23;92444;-72
2022/01/25 11:24:53;;;;;;;62.40;30.08;;;7.60;77.20;;;;;;6006943;23;92929;-72
2022/01/25 11:27:22;;;;;;;61.30;29.30;;;7.60;77.30;;;;;;5982125;23;92888;-72
2022/01/25 11:29:52;;;;;;;59.88;29.35;;;7.50;77.50;;;;;;6006860;23;92373;-72
2022/01/25 11:32:24;;;;;;;59.83;29.60;;;7.60;77.70;;;;;;6007695;23;91808;-72
2022/01/25 11:34:52;;;;;;;62.80;30.67;;;7.60;77.30;;;;;;6006956;23;93033;-72
2022/01/25 11:37:19;;;;;;;54.95;27.00;;;7.60;77.30;;;;;;5981541;23;93982;-72
2022/01/25 11:39:50;;;;;;;61.10;29.52;;;7.60;77.30;;;;;;6005044;23;98616;-72
2022/01/25 11:42:26;;;;;;;62.60;30.35;;;7.60;77.40;;;;;;6007400;23;92339;-72
2022/01/25 11:44:58;;;;;;;61.88;31.13;;;7.70;77.40;;;;;;6006882;23;92883;-72
2022/01/25 11:47:33;;;;;;;61.55;29.60;;;7.70;77.00;;;;;;6007133;23;92712;-71
2022/01/25 11:50:09;;;;;;;56.88;29.02;;;7.70;76.90;;;;;;5981293;23;92591;-72
2022/01/25 11:52:50;;;;;;;60.15;30.17;;;7.70;76.90;;;;;;5981295;23;92454;-72
2022/01/25 11:55:33;;;;;;;63.47;29.90;;;7.70;77.10;;;;;;6006844;23;93008;-72
2022/01/25 11:58:07;;;;;;;65.97;30.90;;;7.70;77.20;;;;;;6006783;23;92995;-71
2022/01/25 12:00:47;;;;;;;61.30;30.50;;;7.60;77.20;;;;;;6007250;23;92384;-72
2022/01/25 12:03:55;;;;;;;63.13;30.73;;;7.60;77.30;;;;;;6007224;23;92488;-71
2022/01/25 12:06:31;;;;;;;65.97;31.92;;;7.70;77.10;;;;;;6001436;23;95536;-71
2022/01/25 12:11:59;;;;;;;59.63;30.38;;;7.60;77.10;;;;;;6006792;23;92758;-72
2022/01/25 12:14:50;;;;;;;64.30;31.70;;;7.60;77.20;;;;;;5981529;23;92488;-72
2022/01/25 12:17:24;;;;;;;63.33;30.80;;;7.60;77.20;;;;;;6007075;23;93084;-71
2022/01/25 12:19:55;;;;;;;61.92;30.23;;;7.60;77.40;;;;;;5981541;23;93201;-72
2022/01/25 12:22:48;;;;;;;65.30;31.63;;;7.60;77.10;;;;;;5981625;23;92494;-72
2022/01/25 12:27:46;;;;;;;61.40;30.25;;;7.60;77.20;;;;;;5981212;23;94036;-71
2022/01/25 12:30:16;;;;;;;65.10;29.70;;;7.70;77.50;;;;;;6006591;23;93379;-72
2022/01/25 12:32:59;;;;;;;61.58;30.58;;;7.70;77.50;;;;;;5980316;23;94879;-72
2022/01/25 12:35:34;;;;;;;62.15;29.42;;;7.70;77.10;;;;;;5981602;23;92879;-71
2022/01/25 12:38:09;;;;;;;65.40;29.48;;;7.70;76.90;;;;;;6006565;23;93191;-72
2022/01/25 12:40:41;;;;;;;55.60;29.15;;;7.70;77.10;;;;;;6006837;23;92370;-72
2022/01/25 12:43:16;;;;;;;59.90;30.33;;;7.60;77.00;;;;;;5981131;23;92804;-72
2022/01/25 12:45:45;;;;;;;60.47;30.25;;;7.60;77.60;;;;;;6006932;23;92427;-72
2022/01/25 12:48:22;;;;;;;64.55;28.95;;;7.60;77.10;;;;;;6006530;23;92992;-72
2022/01/25 12:50:51;;;;;;;63.75;29.77;;;7.70;77.10;;;;;;5981884;23;92880;-72
2022/01/25 12:53:22;;;;;;;62.53;30.83;;;7.70;77.20;;;;;;6007200;23;92986;-71
2022/01/25 12:55:52;;;;;;;60.40;29.48;;;7.70;77.90;;;;;;6006762;23;92311;-72
2022/01/25 12:58:25;;;;;;;59.22;30.85;;;7.70;77.10;;;;;;6004670;23;95655;-72
2022/01/25 13:00:54;;;;;;;60.63;29.50;;;7.70;77.10;;;;;;5981064;23;96478;-72
2022/01/25 13:03:26;;;;;;;55.45;28.30;;;7.70;77.00;;;;;;6006946;23;92526;-72
2022/01/25 13:06:10;;;;;;;62.30;30.33;;;7.70;76.90;;;;;;6006488;23;92417;-68
2022/01/25 13:09:00;;;;;;;53.42;27.75;;;7.70;77.20;;;;;;5980985;23;93001;-68
2022/01/25 13:12:13;;;;;;;61.22;29.52;;;7.70;76.90;;;;;;6006558;23;92853;-68
2022/01/25 13:17:07;;;;;;;58.63;29.58;;;7.60;76.80;;;;;;6007195;23;91628;-68
2022/01/25 13:19:43;;;;;;;58.78;27.10;;;7.60;77.00;;;;;;6006830;23;93180;-68
2022/01/25 13:22:27;;;;;;;60.20;29.40;;;7.60;77.30;;;;;;6005702;23;92688;-68
2022/01/25 13:27:46;;;;;;;56.55;27.65;;;7.50;77.30;;;;;;5983243;23;92466;-68
2022/01/25 13:33:01;;;;;;;65.10;30.55;;;7.50;77.40;;;;;;6006345;23;92794;-68
2022/01/25 13:35:36;;;;;;;62.70;29.83;;;7.50;77.10;;;;;;6005692;23;108265;-68
2022/01/25 13:38:21;;;;;;;65.57;30.30;;;7.60;77.30;;;;;;5980919;23;92369;-68
2022/01/25 13:41:19;;;;;;;63.63;29.52;;;7.60;77.70;;;;;;6006377;23;92970;-68
2022/01/25 13:46:37;;;;;;;61.13;30.90;;;7.60;77.40;;;;;;5981183;23;92460;-68
2022/01/25 13:49:19;;;;;;;64.80;30.35;;;7.60;77.60;;;;;;6006673;23;92456;-68
2022/01/25 13:51:46;;;;;;;63.10;30.00;;;7.60;77.40;;;;;;6005015;23;95420;-68
2022/01/25 13:54:21;;;;;;;64.47;29.17;;;7.60;77.50;;;;;;6006020;23;95210;-68
2022/01/25 13:56:48;;;;;;;74.03;31.25;;;7.60;77.40;;;;;;5957535;23;92389;-68
2022/01/25 13:59:16;;;;;;;61.30;29.33;;;7.60;77.70;;;;;;5980464;23;92551;-68
2022/01/25 14:01:44;;;;;;;60.40;28.95;;;7.60;77.70;;;;;;6006358;23;92478;-68
2022/01/25 14:04:26;;;;;;;64.20;31.23;;;7.50;77.70;;;;;;6005934;23;93381;-68
2022/01/25 14:06:59;;;;;;;61.67;28.38;;;7.60;77.90;;;;;;6006629;23;92440;-68
2022/01/25 14:09:35;;;;;;;59.65;28.85;;;7.60;77.90;;;;;;6006930;23;91635;-68
2022/01/25 14:25:36;;;;;;;66.93;30.02;;;7.50;78.00;;;;;;5980561;23;94126;-68
2022/01/25 14:28:05;;;;;;;62.42;29.17;;;7.50;77.90;;;;;;6005740;23;92477;-68
2022/01/25 14:30:35;;;;;;;62.92;29.88;;;7.50;78.30;;;;;;6006240;23;92362;-69
2022/01/25 14:33:14;;;;;;;61.90;29.40;;;7.40;78.50;;;;;;6005629;23;93033;-69
2022/01/25 14:35:48;;;;;;;65.80;29.27;;;7.50;78.30;;;;;;6007419;23;93763;-69
2022/01/25 14:38:28;;;;;;;59.90;28.37;;;7.40;78.30;;;;;;6007392;23;92695;-69
2022/01/25 14:40:56;;;;;;;61.00;29.30;;;7.40;78.20;;;;;;6007728;23;92860;-68
2022/01/25 14:43:25;;;;;;;61.45;29.60;;;7.40;78.30;;;;;;6005743;23;95537;-69
2022/01/25 14:46:14;;;;;;;67.28;31.35;;;7.40;78.40;;;;;;6007299;23;95286;-68
2022/01/25 14:48:54;;;;;;;65.95;30.02;;;7.50;78.30;;;;;;5982126;23;92404;-69
2022/01/25 14:51:21;;;;;;;58.85;29.50;;;7.40;78.30;;;;;;6007208;23;92439;-69
2022/01/25 14:53:54;;;;;;;63.50;30.20;;;7.40;78.50;;;;;;6007439;23;93032;-69
2022/01/25 14:56:21;;;;;;;64.38;29.70;;;7.40;78.50;;;;;;6007192;23;92708;-69
2022/01/25 15:01:20;;;;;;;59.40;29.77;;;7.30;78.80;;;;;;6007529;23;91713;-68
2022/01/25 15:03:49;;;;;;;57.45;28.65;;;7.30;79.30;;;;;;6006920;23;94094;-69
2022/01/25 15:06:18;;;;;;;62.28;29.90;;;7.30;78.70;;;;;;6006983;23;92836;-68